createdAt,value
2022-09-21T00:00:41.890Z,102700.28
2022-09-21T00:03:10.983Z,102706.09
2022-09-21T00:05:38.846Z,102699.91
2022-09-21T00:08:07.733Z,102705.97
2022-09-21T00:10:35.450Z,102699.75
2022-09-21T00:13:03.682Z,102701.94
2022-09-21T00:15:32.049Z,102706.31
2022-09-21T00:18:00.103Z,102695.38
2022-09-21T00:20:29.289Z,102705.06
2022-09-21T00:22:57.008Z,102710.88
2022-09-21T00:25:24.688Z,102711.94
2022-09-21T00:27:52.445Z,102704.84
2022-09-21T00:30:20.176Z,102704.22
2022-09-21T00:32:47.921Z,102713.06
2022-09-21T00:35:15.651Z,102701.22
2022-09-21T00:37:44.733Z,102703.94
2022-09-21T00:40:12.999Z,102708.66
2022-09-21T00:42:40.768Z,102704.09
2022-09-21T00:45:20.955Z,102707.66
2022-09-21T00:47:50.065Z,102705.06
2022-09-21T00:50:19.676Z,102708.66
2022-09-21T00:52:52.047Z,102711.38
2022-09-21T00:55:22.250Z,102706.81
2022-09-21T00:57:52.568Z,102714.28
2022-09-21T01:00:20.435Z,102711.41
2022-09-21T01:02:48.550Z,102722.50
2022-09-21T01:05:16.270Z,102710.41
2022-09-21T01:07:46.399Z,102713.16
2022-09-21T01:10:16.776Z,102704.69
2022-09-21T01:12:51.891Z,102713.56
2022-09-21T01:15:23.361Z,102710.69
2022-09-21T01:17:54.137Z,102705.03
2022-09-21T01:20:32.732Z,102702.19
2022-09-21T01:23:08.565Z,102710.47
2022-09-21T01:25:41.921Z,102702.84
2022-09-21T01:28:16.662Z,102709.19
2022-09-21T01:30:49.074Z,102709.13
2022-09-21T01:33:19.687Z,102703.19
2022-09-21T01:35:49.831Z,102714.03
2022-09-21T01:38:22.444Z,102707.25
2022-09-21T01:40:52.517Z,102717.50
2022-09-21T01:43:23.481Z,102711.56
2022-09-21T01:45:54.870Z,102711.47
2022-09-21T01:48:24.912Z,102716.47
2022-09-21T01:50:54.593Z,102704.69
2022-09-21T01:53:25.037Z,102704.34
2022-09-21T01:55:54.933Z,102705.69
2022-09-21T01:58:25.716Z,102709.34
2022-09-21T02:00:56.674Z,102709.63
2022-09-21T02:03:29.103Z,102707.38
2022-09-21T02:05:57.129Z,102711.63
2022-09-21T02:08:26.718Z,102709.69
2022-09-21T02:10:54.793Z,102707.50
2022-09-21T02:13:25.299Z,102707.25
2022-09-21T02:16:02.286Z,102702.75
2022-09-21T02:18:35.943Z,102702.75
2022-09-21T02:21:04.938Z,102699.13
2022-09-21T02:23:37.638Z,102711.38
2022-09-21T02:26:07.735Z,102711.38
2022-09-21T02:28:39.421Z,102702.16
2022-09-21T02:31:13.797Z,102716.72
2022-09-21T02:33:47.212Z,102709.78
2022-09-21T02:36:20.522Z,102704.56
2022-09-21T02:38:50.611Z,102704.06
2022-09-21T02:41:20.150Z,102708.28
2022-09-21T02:43:51.730Z,102694.03
2022-09-21T02:46:26.574Z,102697.44
2022-09-21T02:48:56.059Z,102697.19
2022-09-21T02:51:27.222Z,102694.38
2022-09-21T02:53:55.430Z,102695.25
2022-09-21T02:56:23.493Z,102696.94
2022-09-21T02:58:54.221Z,102695.25
2022-09-21T03:01:23.883Z,102695.50
2022-09-21T03:03:51.551Z,102696.59
2022-09-21T03:06:19.102Z,102694.88
2022-09-21T03:08:47.522Z,102697.97
2022-09-21T03:11:18.140Z,102703.25
2022-09-21T03:13:46.075Z,102707.75
2022-09-21T03:16:14.122Z,102700.47
2022-09-21T03:18:44.341Z,102702.16
2022-09-21T03:21:12.188Z,102705.81
2022-09-21T03:23:39.750Z,102704.72
2022-09-21T03:26:08.485Z,102708.94
2022-09-21T03:28:36.021Z,102707.84
2022-09-21T03:31:03.625Z,102711.22
2022-09-21T03:33:31.242Z,102713.16
2022-09-21T03:36:00.171Z,102714.03
2022-09-21T03:38:27.768Z,102716.81
2022-09-21T03:40:58.246Z,102716.81
2022-09-21T03:43:26.070Z,102717.91
2022-09-21T03:45:54.202Z,102714.53
2022-09-21T03:48:22.147Z,102719.25
2022-09-21T03:50:49.687Z,102719.50
2022-09-21T03:53:18.584Z,102712.47
2022-09-21T03:55:46.118Z,102713.88
2022-09-21T03:58:13.771Z,102706.84
2022-09-21T04:00:41.300Z,102710.97
2022-09-21T04:03:08.849Z,102706.16
2022-09-21T04:05:36.350Z,102715.63
2022-09-21T04:08:04.176Z,102708.59
2022-09-21T04:10:33.771Z,102709.09
2022-09-21T04:13:02.173Z,102709.63
2022-09-21T04:15:30.411Z,102710.09
2022-09-21T04:17:58.679Z,102705.00
2022-09-21T04:20:26.241Z,102704.41
2022-09-21T04:22:53.801Z,102706.59
2022-09-21T04:25:21.458Z,102711.56
2022-09-21T04:27:50.790Z,102702.59
2022-09-21T04:30:18.437Z,102704.78
2022-09-21T04:32:46.489Z,102703.09
2022-09-21T04:35:14.011Z,102707.59
2022-09-21T04:37:41.655Z,102703.94
2022-09-21T04:40:09.897Z,102703.63
2022-09-21T04:42:37.838Z,102707.50
2022-09-21T04:45:07.799Z,102708.84
2022-09-21T04:47:35.291Z,102700.75
2022-09-21T04:50:02.812Z,102707.91
2022-09-21T04:52:30.321Z,102709.25
2022-09-21T04:54:57.842Z,102705.84
2022-09-21T04:57:25.378Z,102712.78
2022-09-21T04:59:52.865Z,102703.81
2022-09-21T05:02:21.782Z,102711.59
2022-09-21T05:04:51.078Z,102711.00
2022-09-21T05:07:18.944Z,102710.41
2022-09-21T05:10:04.668Z,102712.84
2022-09-21T05:12:32.548Z,102713.94
2022-09-21T05:15:00.167Z,102718.91
2022-09-21T05:17:29.410Z,102713.31
2022-09-21T05:19:56.968Z,102709.09
2022-09-21T05:22:24.509Z,102711.28
2022-09-21T05:24:52.080Z,102713.47
2022-09-21T05:27:19.614Z,102716.25
2022-09-21T05:29:47.460Z,102715.69
2022-09-21T05:32:19.816Z,102719.81
2022-09-21T05:34:54.311Z,102713.63
2022-09-21T05:37:37.652Z,102719.44
2022-09-21T05:40:06.398Z,102712.16
2022-09-21T05:42:34.406Z,102710.22
2022-09-21T05:45:02.258Z,102714.72
2022-09-21T05:47:37.554Z,102720.03
2022-09-21T05:50:16.802Z,102724.53
2022-09-21T05:52:47.844Z,102725.38
2022-09-21T05:55:23.034Z,102727.91
2022-09-21T05:57:55.113Z,102725.13
2022-09-21T06:00:23.941Z,102722.91
2022-09-21T06:02:58.100Z,102721.81
2022-09-21T06:05:27.351Z,102729.94
2022-09-21T06:07:54.901Z,102729.69
2022-09-21T06:10:24.175Z,102731.38
2022-09-21T06:12:51.744Z,102733.94
2022-09-21T06:15:19.523Z,102729.81
2022-09-21T06:17:47.076Z,102734.28
2022-09-21T06:20:14.672Z,102736.59
2022-09-21T06:22:43.623Z,102735.84
2022-09-21T06:25:11.291Z,102735.31
2022-09-21T06:27:38.859Z,102739.56
2022-09-21T06:30:07.033Z,102730.47
2022-09-21T06:32:34.572Z,102730.56
2022-09-21T06:35:02.145Z,102731.53
2022-09-21T06:37:29.684Z,102740.31
2022-09-21T06:39:58.695Z,102734.09
2022-09-21T06:42:26.256Z,102733.66
2022-09-21T06:44:53.792Z,102737.38
2022-09-21T06:47:21.325Z,102735.66
2022-09-21T06:49:48.916Z,102739.34
2022-09-21T06:52:16.433Z,102739.44
2022-09-21T06:54:44.034Z,102732.69
2022-09-21T06:57:12.932Z,102731.53
2022-09-21T06:59:40.856Z,102731.09
2022-09-21T07:02:09.874Z,102737.22
2022-09-21T07:04:37.520Z,102741.06
2022-09-21T07:07:05.285Z,102741.78
2022-09-21T07:12:21.958Z,102746.78
2022-09-21T07:14:49.469Z,102745.22
2022-09-21T07:17:17.260Z,102751.81
2022-09-21T07:19:44.851Z,102746.50
2022-09-21T07:22:12.543Z,102747.19
2022-09-21T07:24:40.151Z,102740.13
2022-09-21T07:27:07.717Z,102750.81
2022-09-21T07:29:36.623Z,102744.22
2022-09-21T07:32:05.699Z,102744.72
2022-09-21T07:34:35.570Z,102748.63
2022-09-21T07:37:03.140Z,102736.28
2022-09-21T07:39:30.930Z,102747.16
2022-09-21T07:41:58.878Z,102745.88
2022-09-21T07:44:26.669Z,102749.81
2022-09-21T07:46:55.569Z,102751.13
2022-09-21T07:49:23.093Z,102758.44
2022-09-21T07:51:50.798Z,102752.81
2022-09-21T07:54:18.350Z,102751.00
2022-09-21T07:57:05.862Z,102748.63
2022-09-21T07:59:32.849Z,102757.66
2022-09-21T08:02:01.802Z,102749.38
2022-09-21T08:04:29.381Z,102750.25
2022-09-21T08:06:57.001Z,102749.88
2022-09-21T08:09:25.130Z,102749.47
2022-09-21T08:11:53.029Z,102744.84
2022-09-21T08:14:25.857Z,102743.84
2022-09-21T08:16:54.372Z,102744.91
2022-09-21T08:19:25.625Z,102745.66
2022-09-21T08:21:57.245Z,102752.91
2022-09-21T08:24:26.673Z,102752.41
2022-09-21T08:26:55.779Z,102757.09
2022-09-21T08:29:24.243Z,102747.00
2022-09-21T08:31:52.270Z,102748.59
2022-09-21T08:34:20.023Z,102756.19
2022-09-21T08:36:53.012Z,102748.28
2022-09-21T08:39:22.709Z,102751.53
2022-09-21T08:41:56.650Z,102750.69
2022-09-21T08:44:25.783Z,102753.28
2022-09-21T08:46:57.899Z,102753.09
2022-09-21T08:49:28.818Z,102750.91
2022-09-21T08:52:00.887Z,102757.72
2022-09-21T08:54:30.481Z,102758.16
2022-09-21T08:57:06.104Z,102753.66
2022-09-21T08:59:35.105Z,102751.06
2022-09-21T09:02:09.576Z,102754.53
2022-09-21T09:04:44.378Z,102759.19
2022-09-21T09:07:22.487Z,102760.19
2022-09-21T09:09:56.901Z,102764.75
2022-09-21T09:12:35.490Z,102768.59
2022-09-21T09:15:16.001Z,102767.00
2022-09-21T09:17:49.158Z,102773.22
2022-09-21T09:20:19.984Z,102766.19
2022-09-21T09:22:51.100Z,102759.81
2022-09-21T09:25:21.677Z,102764.66
2022-09-21T09:27:51.543Z,102762.34
2022-09-21T09:30:20.701Z,102753.91
2022-09-21T09:32:52.255Z,102750.69
2022-09-21T09:35:23.473Z,102766.03
2022-09-21T09:37:54.256Z,102763.53
2022-09-21T09:40:28.884Z,102752.06
2022-09-21T09:43:03.925Z,102763.44
2022-09-21T09:45:39.791Z,102759.09
2022-09-21T09:48:16.569Z,102760.75
2022-09-21T09:50:44.990Z,102759.22
2022-09-21T09:53:15.900Z,102764.56
2022-09-21T09:55:44.675Z,102762.16
2022-09-21T09:58:17.695Z,102755.63
2022-09-21T10:00:45.819Z,102752.34
2022-09-21T10:03:17.431Z,102752.22
2022-09-21T10:05:45.089Z,102750.81
2022-09-21T10:11:07.177Z,102764.28
2022-09-21T10:13:36.045Z,102767.00
2022-09-21T10:16:05.623Z,102763.41
2022-09-21T10:18:37.917Z,102756.03
2022-09-21T10:21:07.899Z,102762.91
2022-09-21T10:23:36.278Z,102760.63
2022-09-21T10:26:06.295Z,102762.94
2022-09-21T10:28:35.808Z,102753.34
2022-09-21T10:31:09.676Z,102753.44
2022-09-21T10:33:45.061Z,102758.91
2022-09-21T10:36:25.428Z,102763.09
2022-09-21T10:38:53.363Z,102757.25
2022-09-21T10:41:20.968Z,102757.47
2022-09-21T10:43:51.971Z,102751.41
2022-09-21T10:46:33.497Z,102753.22
2022-09-21T10:49:01.418Z,102752.50
2022-09-21T10:51:30.255Z,102749.81
2022-09-21T10:53:58.576Z,102745.66
2022-09-21T10:56:26.556Z,102747.34
2022-09-21T10:59:21.205Z,102750.97
2022-09-21T11:01:50.051Z,102749.44
2022-09-21T11:04:20.719Z,102745.56
2022-09-21T11:06:50.419Z,102746.50
2022-09-21T11:09:21.085Z,102749.53
2022-09-21T11:11:52.526Z,102748.66
2022-09-21T11:14:27.148Z,102738.31
2022-09-21T11:16:56.741Z,102734.59
2022-09-21T11:19:29.259Z,102739.03
2022-09-21T11:22:02.308Z,102739.22
2022-09-21T11:24:33.698Z,102738.72
2022-09-21T11:27:04.986Z,102742.72
2022-09-21T11:29:37.047Z,102732.50
2022-09-21T11:32:20.295Z,102734.66
2022-09-21T11:34:55.339Z,102732.56
2022-09-21T11:37:29.665Z,102731.06
2022-09-21T11:40:05.842Z,102725.59
2022-09-21T11:42:42.609Z,102730.34
2022-09-21T11:45:22.398Z,102727.66
2022-09-21T11:48:00.824Z,102732.38
2022-09-21T11:50:42.131Z,102728.47
2022-09-21T11:53:25.419Z,102732.50
2022-09-21T11:56:13.868Z,102722.34
2022-09-21T11:58:46.548Z,102728.75
2022-09-21T12:01:23.103Z,102723.31
2022-09-21T12:03:59.712Z,102715.84
2022-09-21T12:06:34.109Z,102732.34
2022-09-21T12:09:15.841Z,102720.34
2022-09-21T12:11:45.803Z,102725.66
2022-09-21T12:14:22.541Z,102725.09
2022-09-21T12:16:56.435Z,102722.47
2022-09-21T12:19:28.624Z,102716.47
2022-09-21T12:22:00.625Z,102714.25
2022-09-21T12:24:32.150Z,102716.63
2022-09-21T12:27:02.947Z,102709.03
2022-09-21T12:29:34.981Z,102716.72
2022-09-21T12:32:07.085Z,102711.28
2022-09-21T12:34:39.775Z,102706.25
2022-09-21T12:37:09.879Z,102706.19
2022-09-21T12:39:40.387Z,102707.97
2022-09-21T12:42:19.944Z,102702.25
2022-09-21T12:44:53.446Z,102702.22
2022-09-21T12:47:25.366Z,102702.31
2022-09-21T12:49:57.920Z,102708.03
2022-09-21T12:52:27.081Z,102705.44
2022-09-21T12:54:57.942Z,102699.91
2022-09-21T12:57:49.340Z,102700.72
2022-09-21T13:00:20.355Z,102702.91
2022-09-21T13:02:52.052Z,102703.06
2022-09-21T13:05:24.573Z,102696.38
2022-09-21T13:08:04.854Z,102687.81
2022-09-21T13:10:39.725Z,102689.66
2022-09-21T13:13:10.557Z,102692.66
2022-09-21T13:15:44.094Z,102689.50
2022-09-21T13:18:21.238Z,102690.72
2022-09-21T13:20:52.037Z,102693.72
2022-09-21T13:23:22.613Z,102683.97
2022-09-21T13:25:51.592Z,102683.78
2022-09-21T13:28:23.565Z,102681.25
2022-09-21T13:31:36.687Z,102677.25
2022-09-21T13:34:20.829Z,102686.75
2022-09-21T13:37:13.914Z,102680.03
2022-09-21T13:39:44.529Z,102677.34
2022-09-21T13:42:30.519Z,102673.94
2022-09-21T13:44:58.760Z,102680.53
2022-09-21T13:47:30.115Z,102674.22
2022-09-21T13:50:00.772Z,102672.22
2022-09-21T13:52:31.065Z,102677.97
2022-09-21T13:54:59.939Z,102665.44
2022-09-21T13:57:30.124Z,102673.78
2022-09-21T14:00:06.169Z,102666.59
2022-09-21T14:02:41.237Z,102660.06
2022-09-21T14:05:20.977Z,102658.56
2022-09-21T14:07:54.845Z,102659.41
2022-09-21T14:10:23.541Z,102656.88
2022-09-21T14:12:51.612Z,102655.66
2022-09-21T14:15:32.686Z,102649.31
2022-09-21T14:18:17.954Z,102647.47
2022-09-21T14:21:08.783Z,102644.25
2022-09-21T14:23:36.599Z,102650.13
2022-09-21T14:26:20.737Z,102650.59
2022-09-21T14:28:51.626Z,102644.72
2022-09-21T14:31:21.738Z,102644.06
2022-09-21T14:33:50.749Z,102643.25
2022-09-21T14:36:21.120Z,102641.38
2022-09-21T14:38:54.339Z,102647.91
2022-09-21T14:41:24.752Z,102646.53
2022-09-21T14:43:55.626Z,102635.66
2022-09-21T14:46:30.453Z,102637.56
2022-09-21T14:49:06.361Z,102634.13
2022-09-21T14:51:39.846Z,102635.69
2022-09-21T14:54:14.332Z,102631.22
2022-09-21T14:56:51.612Z,102627.03
2022-09-21T14:59:25.218Z,102629.22
2022-09-21T15:01:59.314Z,102630.22
2022-09-21T15:04:46.621Z,102622.03
2022-09-21T15:07:49.993Z,102618.72
2022-09-21T15:10:39.873Z,102621.22
2022-09-21T15:13:12.081Z,102625.41
2022-09-21T15:15:42.055Z,102622.41
2022-09-21T15:18:17.840Z,102620.56
2022-09-21T15:20:46.170Z,102614.69
2022-09-21T15:23:20.099Z,102612.88
2022-09-21T15:25:58.656Z,102605.19
2022-09-21T15:28:27.482Z,102608.69
2022-09-21T15:30:58.764Z,102610.34
2022-09-21T15:33:27.068Z,102606.34
2022-09-21T15:35:54.780Z,102605.00
2022-09-21T15:38:30.851Z,102597.47
2022-09-21T15:41:03.410Z,102604.59
2022-09-21T15:43:34.018Z,102604.78
2022-09-21T15:46:02.852Z,102602.94
2022-09-21T15:48:34.090Z,102610.63
2022-09-21T15:51:04.949Z,102603.25
2022-09-21T15:53:37.031Z,102600.09
2022-09-21T15:56:04.635Z,102596.41
2022-09-21T15:58:35.774Z,102595.69
2022-09-21T16:01:04.395Z,102600.47
2022-09-21T16:03:32.065Z,102597.09
2022-09-21T16:06:02.479Z,102595.44
2022-09-21T16:08:31.677Z,102594.78
2022-09-21T16:11:14.368Z,102586.41
2022-09-21T16:14:00.553Z,102587.25
2022-09-21T16:16:28.297Z,102592.41
2022-09-21T16:18:56.779Z,102588.09
2022-09-21T16:21:29.854Z,102586.09
2022-09-21T16:23:58.349Z,102587.06
2022-09-21T16:26:35.792Z,102585.06
2022-09-21T16:29:20.219Z,102581.56
2022-09-21T16:31:50.483Z,102581.06
2022-09-21T16:34:33.046Z,102584.53
2022-09-21T16:37:02.298Z,102580.03
2022-09-21T16:39:30.083Z,102583.50
2022-09-21T16:42:02.340Z,102577.50
2022-09-21T16:44:36.783Z,102578.78
2022-09-21T16:47:04.878Z,102573.25
2022-09-21T16:49:35.006Z,102572.88
2022-09-21T16:52:02.882Z,102578.19
2022-09-21T16:54:30.518Z,102572.97
2022-09-21T16:57:00.413Z,102576.25
2022-09-21T16:59:28.277Z,102583.03
2022-09-21T17:01:56.923Z,102579.28
2022-09-21T17:04:25.534Z,102579.22
2022-09-21T17:06:54.064Z,102580.94
2022-09-21T17:09:29.241Z,102580.38
2022-09-21T17:11:57.797Z,102586.47
2022-09-21T17:14:26.769Z,102584.22
2022-09-21T17:16:56.012Z,102582.13
2022-09-21T17:19:23.655Z,102584.06
2022-09-21T17:21:51.604Z,102587.91
2022-09-21T17:24:45.889Z,102585.75
2022-09-21T17:27:09.394Z,102591.94
2022-09-21T17:29:39.934Z,102588.56
2022-09-21T17:32:10.310Z,102592.88
2022-09-21T17:34:38.095Z,102588.03
2022-09-21T17:37:05.655Z,102585.78
2022-09-21T17:39:33.280Z,102577.69
2022-09-21T17:42:04.012Z,102588.50
2022-09-21T17:44:40.410Z,102582.34
2022-09-21T17:47:14.289Z,102584.56
2022-09-21T17:49:41.991Z,102583.06
2022-09-21T17:52:31.738Z,102588.94
2022-09-21T17:55:03.598Z,102584.06
2022-09-21T17:57:41.299Z,102584.50
2022-09-21T18:00:14.569Z,102579.28
2022-09-21T18:02:43.741Z,102582.75
2022-09-21T18:05:16.489Z,102587.09
2022-09-21T18:07:45.200Z,102581.25
2022-09-21T18:10:14.247Z,102584.50
2022-09-21T18:13:00.888Z,102590.75
2022-09-21T18:15:30.843Z,102592.56
2022-09-21T18:18:03.792Z,102595.16
2022-09-21T18:20:39.333Z,102595.19
2022-09-21T18:23:14.399Z,102601.50
2022-09-21T18:25:48.493Z,102600.13
2022-09-21T18:28:18.487Z,102610.94
2022-09-21T18:30:51.317Z,102599.44
2022-09-21T18:33:24.086Z,102598.69
2022-09-21T18:35:59.312Z,102601.28
2022-09-21T18:38:29.741Z,102607.50
2022-09-21T18:41:04.843Z,102603.06
2022-09-21T18:43:39.270Z,102602.53
2022-09-21T18:46:11.175Z,102602.03
2022-09-21T18:48:50.863Z,102602.91
2022-09-21T18:51:22.891Z,102604.63
2022-09-21T18:53:52.879Z,102603.84
2022-09-21T18:56:20.756Z,102605.28
2022-09-21T18:58:49.522Z,102606.47
2022-09-21T19:01:19.053Z,102610.16
2022-09-21T19:03:49.143Z,102608.22
2022-09-21T19:06:27.337Z,102605.44
2022-09-21T19:09:00.823Z,102606.59
2022-09-21T19:11:32.151Z,102610.25
2022-09-21T19:14:03.601Z,102610.00
2022-09-21T19:16:33.416Z,102616.19
2022-09-21T19:19:08.234Z,102620.09
2022-09-21T19:21:40.410Z,102617.28
2022-09-21T19:24:14.637Z,102611.94
2022-09-21T19:26:51.790Z,102613.66
2022-09-21T19:29:29.384Z,102615.88
2022-09-21T19:31:56.980Z,102620.94
2022-09-21T19:34:28.032Z,102621.22
2022-09-21T19:36:57.228Z,102621.47
2022-09-21T19:39:25.080Z,102618.09
2022-09-21T19:41:58.764Z,102618.94
2022-09-21T19:44:34.533Z,102620.06
2022-09-21T19:47:07.354Z,102618.91
2022-09-21T19:49:43.071Z,102619.47
2022-09-21T19:52:12.381Z,102615.81
2022-09-21T19:54:57.823Z,102612.47
2022-09-21T19:57:43.188Z,102613.59
2022-09-21T20:00:12.531Z,102609.06
2022-09-21T20:02:44.808Z,102614.38
2022-09-21T20:05:15.570Z,102617.75
2022-09-21T20:07:48.193Z,102618.56
2022-09-21T20:10:25.113Z,102616.88
2022-09-21T20:12:57.683Z,102616.84
2022-09-21T20:15:29.400Z,102617.09
2022-09-21T20:18:01.124Z,102621.00
2022-09-21T20:20:30.838Z,102618.41
2022-09-21T20:23:00.197Z,102621.19
2022-09-21T20:25:32.567Z,102620.88
2022-09-21T20:28:01.913Z,102618.94
2022-09-21T20:30:32.743Z,102619.47
2022-09-21T20:33:01.926Z,102611.88
2022-09-21T20:35:31.295Z,102617.16
2022-09-21T20:38:02.495Z,102611.00
2022-09-21T20:40:32.116Z,102612.63
2022-09-21T20:43:00.890Z,102609.78
2022-09-21T20:45:28.946Z,102602.19
2022-09-21T20:47:57.206Z,102598.25
2022-09-21T20:50:30.398Z,102601.88
2022-09-21T20:52:59.336Z,102601.00
2022-09-21T20:55:29.223Z,102592.56
2022-09-21T20:57:56.731Z,102595.03
2022-09-21T21:00:24.266Z,102594.75
2022-09-21T21:02:51.965Z,102601.75
2022-09-21T21:05:19.557Z,102597.78
2022-09-21T21:07:47.714Z,102595.53
2022-09-21T21:10:18.769Z,102593.25
2022-09-21T21:12:46.283Z,102599.66
2022-09-21T21:15:13.824Z,102596.00
2022-09-21T21:17:42.054Z,102596.50
2022-09-21T21:20:10.283Z,102599.00
2022-09-21T21:22:37.968Z,102595.31
2022-09-21T21:25:05.994Z,102599.75
2022-09-21T21:27:36.071Z,102603.09
2022-09-21T21:30:04.304Z,102592.97
2022-09-21T21:32:32.371Z,102602.97
2022-09-21T21:34:59.920Z,102596.22
2022-09-21T21:37:28.144Z,102596.75
2022-09-21T21:39:56.090Z,102589.75
2022-09-21T21:42:24.765Z,102584.94
2022-09-21T21:44:53.679Z,102591.03
2022-09-21T21:47:39.286Z,102590.72
2022-09-21T21:50:07.896Z,102594.31
2022-09-21T21:52:35.400Z,102592.63
2022-09-21T21:55:02.984Z,102598.19
2022-09-21T21:57:30.875Z,102593.47
2022-09-21T21:59:59.965Z,102581.72
2022-09-21T22:02:27.855Z,102581.97
2022-09-21T22:04:55.451Z,102580.81
2022-09-21T22:07:23.000Z,102585.81
2022-09-21T22:09:50.654Z,102583.56
2022-09-21T22:12:18.214Z,102581.03
2022-09-21T22:14:46.451Z,102585.75
2022-09-21T22:17:15.623Z,102575.09
2022-09-21T22:19:43.575Z,102583.47
2022-09-21T22:22:11.127Z,102582.28
2022-09-21T22:24:38.708Z,102583.91
2022-09-21T22:27:06.279Z,102590.28
2022-09-21T22:29:33.857Z,102582.66
2022-09-21T22:32:01.601Z,102587.13
2022-09-21T22:34:30.617Z,102585.94
2022-09-21T22:36:59.061Z,102583.09
2022-09-21T22:39:26.682Z,102586.66
2022-09-21T22:41:54.246Z,102584.66
2022-09-21T22:44:21.853Z,102584.59
2022-09-21T22:46:49.372Z,102582.31
2022-09-21T22:49:16.924Z,102580.28
2022-09-21T22:51:45.813Z,102578.84
2022-09-21T22:54:13.407Z,102574.91
2022-09-21T22:56:40.979Z,102577.13
2022-09-21T22:59:08.941Z,102569.50
2022-09-21T23:01:37.599Z,102576.44
2022-09-21T23:04:06.327Z,102569.16
2022-09-21T23:06:34.535Z,102565.53
2022-09-21T23:09:05.433Z,102565.78
2022-09-21T23:11:34.421Z,102563.25
2022-09-21T23:14:02.212Z,102560.72
2022-09-21T23:16:30.342Z,102566.56
2022-09-21T23:18:58.509Z,102559.53
2022-09-21T23:21:27.116Z,102567.59
2022-09-21T23:23:56.302Z,102562.53
2022-09-21T23:26:26.891Z,102563.88
2022-09-21T23:28:55.458Z,102564.41
2022-09-21T23:31:23.483Z,102561.88
2022-09-21T23:33:52.939Z,102562.13
2022-09-21T23:36:21.421Z,102562.63
2022-09-21T23:38:49.483Z,102556.75
2022-09-21T23:41:20.184Z,102556.16
2022-09-21T23:43:49.374Z,102547.19
2022-09-21T23:46:18.201Z,102553.03
2022-09-21T23:48:46.160Z,102541.53
2022-09-21T23:51:13.979Z,102542.88
2022-09-21T23:53:42.022Z,102547.88
2022-09-21T23:56:10.248Z,102553.94
2022-09-21T23:58:37.873Z,102546.69
